Sign-in with your pilot id or email, or register

ICAO: YBBN Name / Country: Brisbane/Internaional / Australia
Latitude: -27.3842 Longitude: 153.117
Total Arrivals:
Strict Standards: Non-static method AirportData::getarrflights() should not be called statically, assuming $this from incompatible context in /var/www/customers/vh-7192/web/home/phpvms/core/templates/airport_info.tpl on line 18
4
Total Departures:
Strict Standards: Non-static method AirportData::getdeptflights() should not be called statically, assuming $this from incompatible context in /var/www/customers/vh-7192/web/home/phpvms/core/templates/airport_info.tpl on line 21
1
Latest Arrival: MTA5PM (YPDN-YBBN) Tibor Berces Latest Departure: MTA5PM (YBBN-YSSY) Tibor Berces
Metar: YBBN 300900Z 04007KT CAVOK 19/13 Q1019 NOSIG
More info

Charts for YBBN


NOTAM


Warning: file_get_contents(http://api.vateud.net/notams/YBBN.json): failed to open stream: Redirection limit reached, aborting in /var/www/customers/vh-7192/web/home/phpvms/core/common/NOTAMSData.class.php on line 18

Warning: Invalid argument supplied for foreach() in /var/www/customers/vh-7192/web/home/phpvms/core/common/NOTAMSData.class.php on line 22

Brisbane/Internaional